createdAt,value
2017-10-05T00:04:44.469Z,2.50
2017-10-05T00:10:13.397Z,2.23
2017-10-05T00:15:41.532Z,2.20
2017-10-05T00:21:09.673Z,1.97
2017-10-05T00:26:37.803Z,2.60
2017-10-05T00:32:05.941Z,2.20
2017-10-05T00:37:34.088Z,2.93
2017-10-05T00:43:03.219Z,2.70
2017-10-05T00:48:31.350Z,2.80
2017-10-05T00:53:59.496Z,2.80
2017-10-05T00:59:27.638Z,2.13
2017-10-05T01:04:55.797Z,2.90
2017-10-05T01:10:23.943Z,3.40
2017-10-05T01:15:52.084Z,3.13
2017-10-05T01:21:20.215Z,2.77
2017-10-05T01:26:49.154Z,3.17
2017-10-05T01:32:17.313Z,3.23
2017-10-05T01:37:45.447Z,2.80
2017-10-05T01:43:13.644Z,2.97
2017-10-05T01:48:41.786Z,2.80
2017-10-05T01:54:09.944Z,2.53
2017-10-05T01:59:38.173Z,2.50
2017-10-05T02:05:06.302Z,3.47
2017-10-05T02:10:35.220Z,2.60
2017-10-05T02:16:03.452Z,2.73
2017-10-05T02:21:31.582Z,2.47
2017-10-05T02:27:00.482Z,3.10
2017-10-05T02:32:28.618Z,2.93
2017-10-05T02:37:56.755Z,2.67
2017-10-05T02:43:24.894Z,3.20
2017-10-05T02:48:53.044Z,2.80
2017-10-05T02:54:21.187Z,3.17
2017-10-05T02:59:49.319Z,2.83
2017-10-05T03:05:17.464Z,2.93
2017-10-05T03:10:46.371Z,3.17
2017-10-05T03:16:14.763Z,2.90
2017-10-05T03:21:42.895Z,3.20
2017-10-05T03:27:11.044Z,2.67
2017-10-05T03:32:39.174Z,2.87
2017-10-05T03:38:08.066Z,3.07
2017-10-05T03:43:36.221Z,3.40
2017-10-05T03:49:05.345Z,2.83
2017-10-05T03:54:33.488Z,2.83
2017-10-05T04:00:01.619Z,3.03
2017-10-05T04:05:29.759Z,2.90
2017-10-05T04:10:58.662Z,2.53
2017-10-05T04:16:26.798Z,2.90
2017-10-05T04:21:55.071Z,2.87
2017-10-05T04:27:23.240Z,2.73
2017-10-05T04:32:51.406Z,1.70
2017-10-05T04:38:19.576Z,1.60
2017-10-05T04:43:48.574Z,1.77
2017-10-05T04:49:16.703Z,1.70
2017-10-05T04:54:44.842Z,1.30
2017-10-05T05:00:13.015Z,1.40
2017-10-05T05:05:41.161Z,1.40
2017-10-05T05:11:10.128Z,1.50
2017-10-05T05:16:38.275Z,1.37
2017-10-05T05:22:06.445Z,1.80
2017-10-05T05:27:35.566Z,1.50
2017-10-05T05:33:03.723Z,1.50
2017-10-05T05:38:31.867Z,1.70
2017-10-05T05:44:00.008Z,1.50
2017-10-05T05:49:28.143Z,1.50
2017-10-05T05:54:57.070Z,1.93
2017-10-05T06:00:25.228Z,1.90
2017-10-05T06:05:53.377Z,1.80
2017-10-05T06:11:21.528Z,2.07
2017-10-05T06:16:49.684Z,1.57
2017-10-05T06:22:17.832Z,2.10
2017-10-05T06:27:45.964Z,2.00
2017-10-05T06:33:14.098Z,2.50
2017-10-05T06:38:42.246Z,2.40
2017-10-05T06:44:10.388Z,1.90
2017-10-05T06:49:38.533Z,2.30
2017-10-05T06:55:06.662Z,2.10
2017-10-05T07:00:34.796Z,2.00
2017-10-05T07:06:03.712Z,2.57
2017-10-05T07:11:31.856Z,1.57
2017-10-05T07:17:00.001Z,1.97
2017-10-05T07:22:28.156Z,1.70
2017-10-05T07:27:57.068Z,2.30
2017-10-05T07:33:25.203Z,1.50
2017-10-05T07:38:53.357Z,1.57
2017-10-05T07:44:21.486Z,1.47
2017-10-05T07:49:49.640Z,1.47
2017-10-05T07:55:17.788Z,1.70
2017-10-05T08:00:45.940Z,1.17
2017-10-05T08:06:14.077Z,1.20
2017-10-05T08:11:42.233Z,1.23
2017-10-05T08:17:10.379Z,1.30
2017-10-05T08:22:39.280Z,1.30
2017-10-05T08:28:07.426Z,1.30
2017-10-05T08:33:35.576Z,1.07
2017-10-05T08:39:03.715Z,1.60
2017-10-05T08:44:31.869Z,1.67
2017-10-05T08:50:00.050Z,1.20
2017-10-05T08:55:28.186Z,1.10
2017-10-05T09:00:56.407Z,1.20
2017-10-05T09:06:24.569Z,1.20
2017-10-05T09:11:52.720Z,1.37
2017-10-05T09:17:20.855Z,0.93
2017-10-05T09:22:49.003Z,0.80
2017-10-05T09:28:17.154Z,1.10
2017-10-05T09:33:45.300Z,0.90
2017-10-05T09:39:13.452Z,1.10
2017-10-05T09:44:41.604Z,1.20
2017-10-05T09:50:09.749Z,1.10
2017-10-05T09:55:37.892Z,1.30
2017-10-05T10:01:06.033Z,1.10
2017-10-05T10:06:34.178Z,1.30
2017-10-05T10:12:02.320Z,1.30
2017-10-05T10:17:30.491Z,1.20
2017-10-05T10:22:58.636Z,0.90
2017-10-05T10:28:26.772Z,0.90
2017-10-05T10:33:54.973Z,1.00
2017-10-05T10:39:23.188Z,0.90
2017-10-05T10:44:51.334Z,0.90
2017-10-05T10:50:19.545Z,1.23
2017-10-05T10:55:47.802Z,1.00
2017-10-05T11:01:16.061Z,1.60
2017-10-05T11:06:46.059Z,1.10
2017-10-05T11:12:14.198Z,0.93
2017-10-05T11:17:42.356Z,1.00
2017-10-05T11:23:10.488Z,1.00
2017-10-05T11:28:39.419Z,1.20
2017-10-05T11:34:07.571Z,1.00
2017-10-05T11:39:35.716Z,1.00
2017-10-05T11:45:04.025Z,0.87
2017-10-05T11:50:32.931Z,1.07
2017-10-05T11:56:01.066Z,1.20
2017-10-05T12:01:29.979Z,0.97
2017-10-05T12:06:58.119Z,1.17
2017-10-05T12:12:26.272Z,1.00
2017-10-05T12:17:54.431Z,1.20
2017-10-05T12:23:22.577Z,1.00
2017-10-05T12:28:51.493Z,1.27
2017-10-05T12:34:19.632Z,1.30
2017-10-05T12:39:47.782Z,0.87
2017-10-05T12:45:15.935Z,1.30
2017-10-05T12:50:45.056Z,0.87
2017-10-05T12:56:13.191Z,1.17
2017-10-05T13:01:41.322Z,1.00
2017-10-05T13:07:10.246Z,1.07
2017-10-05T13:12:38.399Z,0.83
2017-10-05T13:18:06.563Z,0.90
2017-10-05T13:23:34.726Z,1.00
2017-10-05T13:29:02.868Z,0.90
2017-10-05T13:34:31.072Z,1.10
2017-10-05T13:39:59.987Z,1.13
2017-10-05T13:45:28.137Z,1.00
2017-10-05T13:50:56.305Z,1.10
2017-10-05T13:56:24.458Z,0.90
2017-10-05T14:01:52.612Z,1.23
2017-10-05T14:07:20.772Z,1.10
2017-10-05T14:12:48.910Z,1.00
2017-10-05T14:18:17.060Z,0.73
2017-10-05T14:23:45.194Z,1.00
2017-10-05T14:29:13.351Z,1.10
2017-10-05T14:34:41.532Z,0.90
2017-10-05T14:40:10.443Z,1.10
2017-10-05T14:45:38.591Z,1.00
2017-10-05T14:51:06.730Z,0.83
2017-10-05T14:56:36.125Z,0.90
2017-10-05T15:02:04.304Z,1.03
2017-10-05T15:07:32.444Z,0.90
2017-10-05T15:13:00.582Z,1.73
2017-10-05T15:18:28.735Z,1.00
2017-10-05T15:23:57.648Z,0.90
2017-10-05T15:29:25.838Z,1.10
2017-10-05T15:34:53.983Z,1.00
2017-10-05T15:40:22.140Z,1.13
2017-10-05T15:45:50.302Z,1.10
2017-10-05T15:51:18.500Z,1.10
2017-10-05T15:56:47.432Z,1.10
2017-10-05T16:02:15.574Z,1.23
2017-10-05T16:07:43.805Z,1.40
2017-10-05T16:13:11.961Z,1.20
2017-10-05T16:18:40.868Z,1.27
2017-10-05T16:24:09.162Z,2.10
2017-10-05T16:29:37.324Z,1.20
2017-10-05T16:35:05.476Z,1.10
2017-10-05T16:40:33.644Z,0.97
2017-10-05T16:46:01.770Z,1.20
2017-10-05T16:51:29.939Z,1.27
2017-10-05T16:56:58.079Z,1.30
2017-10-05T17:02:26.236Z,1.10
2017-10-05T17:07:54.395Z,1.10
2017-10-05T17:13:22.534Z,1.30
2017-10-05T17:18:50.698Z,1.67
2017-10-05T17:24:22.372Z,1.47
2017-10-05T17:29:50.547Z,1.73
2017-10-05T17:35:18.684Z,1.57
2017-10-05T17:40:46.842Z,1.30
2017-10-05T17:46:14.982Z,1.80
2017-10-05T17:51:43.122Z,1.43
2017-10-05T17:57:11.277Z,1.57
2017-10-05T18:02:39.433Z,1.27
2017-10-05T18:08:07.671Z,1.60
2017-10-05T18:13:36.588Z,1.43
2017-10-05T18:19:04.761Z,1.30
2017-10-05T18:24:32.915Z,1.40
2017-10-05T18:30:01.087Z,1.50
2017-10-05T18:35:30.315Z,1.80
2017-10-05T18:40:58.783Z,1.87
2017-10-05T18:46:26.942Z,1.70
2017-10-05T18:51:55.153Z,2.20
2017-10-05T18:57:23.320Z,2.20
2017-10-05T19:02:51.627Z,2.50
2017-10-05T19:08:19.781Z,2.10
2017-10-05T19:13:47.937Z,2.03
2017-10-05T19:19:16.857Z,2.50
2017-10-05T19:24:45.007Z,1.57
2017-10-05T19:30:13.177Z,1.30
2017-10-05T19:35:41.334Z,1.20
2017-10-05T19:41:09.485Z,1.30
2017-10-05T19:46:38.216Z,2.00
2017-10-05T19:52:06.385Z,2.33
2017-10-05T19:57:34.532Z,1.40
2017-10-05T20:03:02.667Z,2.23
2017-10-05T20:08:37.324Z,2.00
2017-10-05T20:14:09.316Z,1.73
2017-10-05T20:19:42.967Z,4.17
2017-10-05T20:25:16.714Z,2.00
2017-10-05T20:36:56.470Z,2.13
2017-10-05T20:42:24.639Z,2.00
2017-10-05T20:47:52.808Z,2.00
2017-10-05T20:53:21.879Z,1.93
2017-10-05T20:58:50.012Z,2.07
2017-10-05T21:04:18.158Z,2.50
2017-10-05T21:09:47.065Z,2.80
2017-10-05T21:15:15.212Z,2.70
2017-10-05T21:20:43.551Z,2.40
2017-10-05T21:26:11.690Z,2.90
2017-10-05T21:31:40.594Z,3.00
2017-10-05T21:37:08.740Z,2.60
2017-10-05T21:42:36.885Z,4.17
2017-10-05T21:48:05.776Z,3.37
2017-10-05T21:53:34.904Z,3.80
2017-10-05T21:59:03.064Z,3.10
2017-10-05T22:04:31.273Z,4.30
2017-10-05T22:09:59.420Z,3.20
2017-10-05T22:15:28.385Z,4.10
2017-10-05T22:20:57.290Z,3.33
2017-10-05T22:26:25.446Z,3.43
2017-10-05T22:31:53.594Z,3.70
2017-10-05T22:37:21.723Z,3.60
2017-10-05T22:42:49.861Z,4.07
2017-10-05T22:48:18.008Z,4.00
2017-10-05T22:53:46.158Z,3.50
2017-10-05T22:59:14.370Z,3.57
2017-10-05T23:04:44.219Z,3.40
2017-10-05T23:10:12.356Z,3.70
2017-10-05T23:15:40.497Z,3.37
2017-10-05T23:21:09.416Z,3.47
2017-10-05T23:26:37.555Z,3.17
2017-10-05T23:32:05.704Z,3.00
2017-10-05T23:37:33.841Z,3.60
2017-10-05T23:43:02.748Z,3.77
2017-10-05T23:48:30.880Z,3.57
2017-10-05T23:53:59.005Z,3.13
2017-10-05T23:59:27.141Z,3.53
